sensor_id;sensor_type;location;lat;lon;timestamp;temperature;humidity
19348;DHT22;9810;52.480;9.806;2023-07-09T00:00:13;20.80;99.90
19348;DHT22;9810;52.480;9.806;2023-07-09T00:02:41;20.80;99.90
19348;DHT22;9810;52.480;9.806;2023-07-09T00:05:11;20.80;99.90
19348;DHT22;9810;52.480;9.806;2023-07-09T00:07:40;20.70;99.90
19348;DHT22;9810;52.480;9.806;2023-07-09T00:10:19;20.70;99.90
19348;DHT22;9810;52.480;9.806;2023-07-09T00:12:49;20.70;99.90
19348;DHT22;9810;52.480;9.806;2023-07-09T00:15:16;20.70;99.90
19348;DHT22;9810;52.480;9.806;2023-07-09T00:17:44;20.60;99.90
19348;DHT22;9810;52.480;9.806;2023-07-09T00:20:13;20.60;99.90
19348;DHT22;9810;52.480;9.806;2023-07-09T00:22:41;20.60;99.90
19348;DHT22;9810;52.480;9.806;2023-07-09T00:25:18;20.60;99.90
19348;DHT22;9810;52.480;9.806;2023-07-09T00:27:46;20.50;99.90
19348;DHT22;9810;52.480;9.806;2023-07-09T00:30:20;20.50;99.90
19348;DHT22;9810;52.480;9.806;2023-07-09T00:32:48;20.30;99.90
19348;DHT22;9810;52.480;9.806;2023-07-09T00:35:18;20.30;99.90
19348;DHT22;9810;52.480;9.806;2023-07-09T00:37:46;20.40;99.90
19348;DHT22;9810;52.480;9.806;2023-07-09T00:40:18;20.20;99.90
19348;DHT22;9810;52.480;9.806;2023-07-09T00:42:47;20.20;99.90
19348;DHT22;9810;52.480;9.806;2023-07-09T00:45:21;20.00;99.90
19348;DHT22;9810;52.480;9.806;2023-07-09T00:47:55;19.90;99.90
19348;DHT22;9810;52.480;9.806;2023-07-09T00:50:36;19.90;99.90
19348;DHT22;9810;52.480;9.806;2023-07-09T00:53:13;19.70;99.90
19348;DHT22;9810;52.480;9.806;2023-07-09T00:55:46;19.60;99.90
19348;DHT22;9810;52.480;9.806;2023-07-09T00:58:16;19.60;99.90
19348;DHT22;9810;52.480;9.806;2023-07-09T01:00:50;19.50;99.90
19348;DHT22;9810;52.480;9.806;2023-07-09T01:03:25;19.40;99.90
19348;DHT22;9810;52.480;9.806;2023-07-09T01:05:55;19.30;99.90
19348;DHT22;9810;52.480;9.806;2023-07-09T01:08:24;19.30;99.90
19348;DHT22;9810;52.480;9.806;2023-07-09T01:10:56;19.40;99.90
19348;DHT22;9810;52.480;9.806;2023-07-09T01:13:24;19.40;99.90
19348;DHT22;9810;52.480;9.806;2023-07-09T01:15:55;19.40;99.90
19348;DHT22;9810;52.480;9.806;2023-07-09T01:18:22;19.40;99.90
19348;DHT22;9810;52.480;9.806;2023-07-09T01:20:50;19.30;99.90
19348;DHT22;9810;52.480;9.806;2023-07-09T01:23:20;19.30;99.90
19348;DHT22;9810;52.480;9.806;2023-07-09T01:25:50;19.30;99.90
19348;DHT22;9810;52.480;9.806;2023-07-09T01:28:20;19.10;99.90
19348;DHT22;9810;52.480;9.806;2023-07-09T01:30:48;19.10;99.90
19348;DHT22;9810;52.480;9.806;2023-07-09T01:33:20;19.10;99.90
19348;DHT22;9810;52.480;9.806;2023-07-09T01:35:48;19.00;99.90
19348;DHT22;9810;52.480;9.806;2023-07-09T01:38:15;18.90;99.90
19348;DHT22;9810;52.480;9.806;2023-07-09T01:40:44;18.80;99.90
19348;DHT22;9810;52.480;9.806;2023-07-09T01:43:12;18.90;99.90
19348;DHT22;9810;52.480;9.806;2023-07-09T01:45:39;18.80;99.90
19348;DHT22;9810;52.480;9.806;2023-07-09T01:48:07;18.90;99.90
19348;DHT22;9810;52.480;9.806;2023-07-09T01:50:41;18.90;99.90
19348;DHT22;9810;52.480;9.806;2023-07-09T01:53:11;18.80;99.90
19348;DHT22;9810;52.480;9.806;2023-07-09T01:55:38;18.80;99.90
19348;DHT22;9810;52.480;9.806;2023-07-09T01:58:07;18.80;99.90
19348;DHT22;9810;52.480;9.806;2023-07-09T02:00:37;18.90;99.90
19348;DHT22;9810;52.480;9.806;2023-07-09T02:03:07;19.00;99.90
19348;DHT22;9810;52.480;9.806;2023-07-09T02:05:35;18.90;99.90
19348;DHT22;9810;52.480;9.806;2023-07-09T02:08:03;19.00;99.90
19348;DHT22;9810;52.480;9.806;2023-07-09T02:10:31;19.10;99.90
19348;DHT22;9810;52.480;9.806;2023-07-09T02:12:58;19.10;99.90
19348;DHT22;9810;52.480;9.806;2023-07-09T02:15:27;19.10;99.90
19348;DHT22;9810;52.480;9.806;2023-07-09T02:17:55;19.00;99.90
19348;DHT22;9810;52.480;9.806;2023-07-09T02:20:24;18.90;99.90
19348;DHT22;9810;52.480;9.806;2023-07-09T02:22:51;19.00;99.90
19348;DHT22;9810;52.480;9.806;2023-07-09T02:25:18;19.10;99.90
19348;DHT22;9810;52.480;9.806;2023-07-09T02:27:46;19.00;99.90
19348;DHT22;9810;52.480;9.806;2023-07-09T02:30:13;18.90;99.90
19348;DHT22;9810;52.480;9.806;2023-07-09T02:32:42;19.00;99.90
19348;DHT22;9810;52.480;9.806;2023-07-09T02:35:09;19.00;99.90
19348;DHT22;9810;52.480;9.806;2023-07-09T02:37:36;18.70;99.90
19348;DHT22;9810;52.480;9.806;2023-07-09T02:40:05;18.60;99.90
19348;DHT22;9810;52.480;9.806;2023-07-09T02:42:32;18.70;99.90
19348;DHT22;9810;52.480;9.806;2023-07-09T02:45:00;18.60;99.90
19348;DHT22;9810;52.480;9.806;2023-07-09T02:47:27;18.60;99.90
19348;DHT22;9810;52.480;9.806;2023-07-09T02:49:56;18.50;99.90
19348;DHT22;9810;52.480;9.806;2023-07-09T02:52:23;18.50;99.90
19348;DHT22;9810;52.480;9.806;2023-07-09T02:54:52;18.40;99.90
19348;DHT22;9810;52.480;9.806;2023-07-09T02:57:19;18.50;99.90
19348;DHT22;9810;52.480;9.806;2023-07-09T02:59:46;18.50;99.90
19348;DHT22;9810;52.480;9.806;2023-07-09T03:02:14;18.50;99.90
19348;DHT22;9810;52.480;9.806;2023-07-09T03:04:41;18.50;99.90
19348;DHT22;9810;52.480;9.806;2023-07-09T03:07:10;18.40;99.90
19348;DHT22;9810;52.480;9.806;2023-07-09T03:09:37;18.30;99.90
19348;DHT22;9810;52.480;9.806;2023-07-09T03:12:05;18.20;99.90
19348;DHT22;9810;52.480;9.806;2023-07-09T03:14:33;18.30;99.90
19348;DHT22;9810;52.480;9.806;2023-07-09T03:17:00;18.30;99.90
19348;DHT22;9810;52.480;9.806;2023-07-09T03:19:28;18.30;99.90
19348;DHT22;9810;52.480;9.806;2023-07-09T03:21:55;18.20;99.90
19348;DHT22;9810;52.480;9.806;2023-07-09T03:24:24;18.00;99.90
19348;DHT22;9810;52.480;9.806;2023-07-09T03:26:51;18.00;99.90
19348;DHT22;9810;52.480;9.806;2023-07-09T03:29:19;17.90;99.90
19348;DHT22;9810;52.480;9.806;2023-07-09T03:31:45;18.00;99.90
19348;DHT22;9810;52.480;9.806;2023-07-09T03:34:14;18.10;99.90
19348;DHT22;9810;52.480;9.806;2023-07-09T03:36:42;18.10;99.90
19348;DHT22;9810;52.480;9.806;2023-07-09T03:39:09;18.00;99.90
19348;DHT22;9810;52.480;9.806;2023-07-09T03:41:38;17.90;99.90
19348;DHT22;9810;52.480;9.806;2023-07-09T03:44:05;18.20;99.90
19348;DHT22;9810;52.480;9.806;2023-07-09T03:46:32;18.40;99.90
19348;DHT22;9810;52.480;9.806;2023-07-09T03:49:00;18.40;99.90
19348;DHT22;9810;52.480;9.806;2023-07-09T03:51:27;18.30;99.90
19348;DHT22;9810;52.480;9.806;2023-07-09T03:53:55;18.10;99.90
19348;DHT22;9810;52.480;9.806;2023-07-09T03:56:22;18.30;99.90
19348;DHT22;9810;52.480;9.806;2023-07-09T03:58:51;18.10;99.90
19348;DHT22;9810;52.480;9.806;2023-07-09T04:01:18;18.00;99.90
19348;DHT22;9810;52.480;9.806;2023-07-09T04:03:45;18.00;99.90
19348;DHT22;9810;52.480;9.806;2023-07-09T04:06:13;18.20;99.90
19348;DHT22;9810;52.480;9.806;2023-07-09T04:08:40;19.00;99.90
19348;DHT22;9810;52.480;9.806;2023-07-09T04:11:09;20.20;99.90
19348;DHT22;9810;52.480;9.806;2023-07-09T04:13:36;21.10;99.90
19348;DHT22;9810;52.480;9.806;2023-07-09T04:16:05;21.50;99.90
19348;DHT22;9810;52.480;9.806;2023-07-09T04:18:33;21.50;99.90
19348;DHT22;9810;52.480;9.806;2023-07-09T04:21:01;21.40;99.90
19348;DHT22;9810;52.480;9.806;2023-07-09T04:23:29;21.60;99.90
19348;DHT22;9810;52.480;9.806;2023-07-09T04:25:56;20.60;99.90
19348;DHT22;9810;52.480;9.806;2023-07-09T04:28:24;20.10;99.90
19348;DHT22;9810;52.480;9.806;2023-07-09T04:30:52;19.70;99.90
19348;DHT22;9810;52.480;9.806;2023-07-09T04:33:20;19.40;99.90
19348;DHT22;9810;52.480;9.806;2023-07-09T04:35:48;19.10;99.90
19348;DHT22;9810;52.480;9.806;2023-07-09T04:38:16;19.00;99.90
19348;DHT22;9810;52.480;9.806;2023-07-09T04:40:43;19.10;99.90
19348;DHT22;9810;52.480;9.806;2023-07-09T04:43:10;19.20;99.90
19348;DHT22;9810;52.480;9.806;2023-07-09T04:45:37;19.30;99.90
19348;DHT22;9810;52.480;9.806;2023-07-09T04:48:05;19.40;99.90
19348;DHT22;9810;52.480;9.806;2023-07-09T04:50:35;19.40;99.90
19348;DHT22;9810;52.480;9.806;2023-07-09T04:53:02;19.40;99.90
19348;DHT22;9810;52.480;9.806;2023-07-09T04:55:29;19.40;99.90
19348;DHT22;9810;52.480;9.806;2023-07-09T04:57:57;19.50;99.90
19348;DHT22;9810;52.480;9.806;2023-07-09T05:00:24;19.50;99.90
19348;DHT22;9810;52.480;9.806;2023-07-09T05:02:51;19.40;99.90
19348;DHT22;9810;52.480;9.806;2023-07-09T05:05:19;19.50;99.90
19348;DHT22;9810;52.480;9.806;2023-07-09T05:07:48;19.60;99.90
19348;DHT22;9810;52.480;9.806;2023-07-09T05:10:16;19.80;99.90
19348;DHT22;9810;52.480;9.806;2023-07-09T05:12:48;19.70;99.90
19348;DHT22;9810;52.480;9.806;2023-07-09T05:15:16;19.70;99.90
19348;DHT22;9810;52.480;9.806;2023-07-09T05:17:44;19.80;99.90
19348;DHT22;9810;52.480;9.806;2023-07-09T05:20:11;19.90;99.90
19348;DHT22;9810;52.480;9.806;2023-07-09T05:22:39;19.90;99.90
19348;DHT22;9810;52.480;9.806;2023-07-09T05:25:08;20.00;99.90
19348;DHT22;9810;52.480;9.806;2023-07-09T05:27:35;20.00;99.90
19348;DHT22;9810;52.480;9.806;2023-07-09T05:30:03;20.10;99.90
19348;DHT22;9810;52.480;9.806;2023-07-09T05:32:30;20.30;99.90
19348;DHT22;9810;52.480;9.806;2023-07-09T05:34:58;20.20;99.90
19348;DHT22;9810;52.480;9.806;2023-07-09T05:37:25;20.20;99.90
19348;DHT22;9810;52.480;9.806;2023-07-09T05:39:52;20.30;99.90
19348;DHT22;9810;52.480;9.806;2023-07-09T05:42:22;20.30;99.90
19348;DHT22;9810;52.480;9.806;2023-07-09T05:44:49;20.40;99.90
19348;DHT22;9810;52.480;9.806;2023-07-09T05:47:16;20.40;99.90
19348;DHT22;9810;52.480;9.806;2023-07-09T05:49:43;20.50;99.90
19348;DHT22;9810;52.480;9.806;2023-07-09T05:52:15;20.50;99.90
19348;DHT22;9810;52.480;9.806;2023-07-09T05:54:42;20.60;99.90
19348;DHT22;9810;52.480;9.806;2023-07-09T05:57:10;20.70;99.90
19348;DHT22;9810;52.480;9.806;2023-07-09T05:59:39;20.60;99.90
19348;DHT22;9810;52.480;9.806;2023-07-09T06:02:10;20.70;99.90
19348;DHT22;9810;52.480;9.806;2023-07-09T06:04:37;20.60;99.90
19348;DHT22;9810;52.480;9.806;2023-07-09T06:07:05;20.80;99.90
19348;DHT22;9810;52.480;9.806;2023-07-09T06:09:33;20.90;99.90
19348;DHT22;9810;52.480;9.806;2023-07-09T06:12:00;21.00;99.90
19348;DHT22;9810;52.480;9.806;2023-07-09T06:14:27;21.10;99.90
19348;DHT22;9810;52.480;9.806;2023-07-09T06:16:56;21.10;99.90
19348;DHT22;9810;52.480;9.806;2023-07-09T06:19:24;21.20;99.90
19348;DHT22;9810;52.480;9.806;2023-07-09T06:21:51;21.30;99.90
19348;DHT22;9810;52.480;9.806;2023-07-09T06:24:19;21.30;99.90
19348;DHT22;9810;52.480;9.806;2023-07-09T06:26:46;21.50;99.90
19348;DHT22;9810;52.480;9.806;2023-07-09T06:29:13;21.60;99.90
19348;DHT22;9810;52.480;9.806;2023-07-09T06:31:40;21.70;99.90
19348;DHT22;9810;52.480;9.806;2023-07-09T06:34:10;21.70;99.90
19348;DHT22;9810;52.480;9.806;2023-07-09T06:36:38;21.90;99.90
19348;DHT22;9810;52.480;9.806;2023-07-09T06:39:05;21.90;99.90
19348;DHT22;9810;52.480;9.806;2023-07-09T06:41:33;22.00;99.90
19348;DHT22;9810;52.480;9.806;2023-07-09T06:44:04;22.10;99.90
19348;DHT22;9810;52.480;9.806;2023-07-09T06:46:31;22.10;99.90
19348;DHT22;9810;52.480;9.806;2023-07-09T06:48:59;22.30;99.90
19348;DHT22;9810;52.480;9.806;2023-07-09T06:51:28;22.40;99.90
19348;DHT22;9810;52.480;9.806;2023-07-09T06:53:55;22.50;99.90
19348;DHT22;9810;52.480;9.806;2023-07-09T06:56:23;22.70;99.90
19348;DHT22;9810;52.480;9.806;2023-07-09T06:58:51;22.90;99.90
19348;DHT22;9810;52.480;9.806;2023-07-09T07:01:18;23.00;99.90
19348;DHT22;9810;52.480;9.806;2023-07-09T07:03:45;23.10;99.90
19348;DHT22;9810;52.480;9.806;2023-07-09T07:06:12;23.20;99.90
19348;DHT22;9810;52.480;9.806;2023-07-09T07:08:43;23.40;99.90
19348;DHT22;9810;52.480;9.806;2023-07-09T07:11:10;23.40;99.90
19348;DHT22;9810;52.480;9.806;2023-07-09T07:13:39;23.50;99.90
19348;DHT22;9810;52.480;9.806;2023-07-09T07:16:09;23.60;99.90
19348;DHT22;9810;52.480;9.806;2023-07-09T07:18:37;23.60;99.90
19348;DHT22;9810;52.480;9.806;2023-07-09T07:21:05;23.80;99.90
19348;DHT22;9810;52.480;9.806;2023-07-09T07:23:33;23.80;99.90
19348;DHT22;9810;52.480;9.806;2023-07-09T07:26:02;24.00;99.90
19348;DHT22;9810;52.480;9.806;2023-07-09T07:28:29;24.30;99.90
19348;DHT22;9810;52.480;9.806;2023-07-09T07:31:00;24.60;99.90
19348;DHT22;9810;52.480;9.806;2023-07-09T07:33:27;24.90;99.90
19348;DHT22;9810;52.480;9.806;2023-07-09T07:35:55;25.40;99.90
19348;DHT22;9810;52.480;9.806;2023-07-09T07:38:22;26.00;99.90
19348;DHT22;9810;52.480;9.806;2023-07-09T07:40:49;26.00;99.90
19348;DHT22;9810;52.480;9.806;2023-07-09T07:43:18;26.10;99.90
19348;DHT22;9810;52.480;9.806;2023-07-09T07:45:47;26.60;99.90
19348;DHT22;9810;52.480;9.806;2023-07-09T07:48:14;27.00;99.90
19348;DHT22;9810;52.480;9.806;2023-07-09T07:50:42;27.30;99.90
19348;DHT22;9810;52.480;9.806;2023-07-09T07:53:11;27.80;99.90
19348;DHT22;9810;52.480;9.806;2023-07-09T07:55:39;28.30;99.90
19348;DHT22;9810;52.480;9.806;2023-07-09T07:58:09;28.10;99.90
19348;DHT22;9810;52.480;9.806;2023-07-09T08:00:38;28.20;99.90
19348;DHT22;9810;52.480;9.806;2023-07-09T08:03:05;28.50;99.90
19348;DHT22;9810;52.480;9.806;2023-07-09T08:05:32;28.60;99.90
19348;DHT22;9810;52.480;9.806;2023-07-09T08:08:00;29.20;99.90
19348;DHT22;9810;52.480;9.806;2023-07-09T08:10:27;28.70;99.90
19348;DHT22;9810;52.480;9.806;2023-07-09T08:12:55;28.90;99.90
19348;DHT22;9810;52.480;9.806;2023-07-09T08:15:23;28.70;99.90
19348;DHT22;9810;52.480;9.806;2023-07-09T08:17:52;28.80;99.90
19348;DHT22;9810;52.480;9.806;2023-07-09T08:20:19;28.90;99.90
19348;DHT22;9810;52.480;9.806;2023-07-09T08:22:46;29.70;99.90
19348;DHT22;9810;52.480;9.806;2023-07-09T08:25:13;29.40;99.90
19348;DHT22;9810;52.480;9.806;2023-07-09T08:27:41;29.50;99.90
19348;DHT22;9810;52.480;9.806;2023-07-09T08:30:09;29.60;99.90
19348;DHT22;9810;52.480;9.806;2023-07-09T08:32:36;30.00;99.90
19348;DHT22;9810;52.480;9.806;2023-07-09T08:35:06;30.70;99.90
19348;DHT22;9810;52.480;9.806;2023-07-09T08:37:35;30.60;99.90
19348;DHT22;9810;52.480;9.806;2023-07-09T08:40:04;31.00;99.90
19348;DHT22;9810;52.480;9.806;2023-07-09T08:42:49;30.70;99.90
19348;DHT22;9810;52.480;9.806;2023-07-09T08:45:26;30.80;99.90
19348;DHT22;9810;52.480;9.806;2023-07-09T08:48:01;31.30;99.90
19348;DHT22;9810;52.480;9.806;2023-07-09T08:50:36;30.80;99.90
19348;DHT22;9810;52.480;9.806;2023-07-09T08:53:09;30.60;99.90
19348;DHT22;9810;52.480;9.806;2023-07-09T08:55:41;30.90;99.90
19348;DHT22;9810;52.480;9.806;2023-07-09T08:58:15;31.20;99.90
19348;DHT22;9810;52.480;9.806;2023-07-09T09:00:51;30.80;99.90
19348;DHT22;9810;52.480;9.806;2023-07-09T09:03:28;31.30;99.90
19348;DHT22;9810;52.480;9.806;2023-07-09T09:05:58;31.70;99.90
19348;DHT22;9810;52.480;9.806;2023-07-09T09:08:36;31.90;99.90
19348;DHT22;9810;52.480;9.806;2023-07-09T09:11:11;32.20;99.90
19348;DHT22;9810;52.480;9.806;2023-07-09T09:13:39;31.80;99.90
19348;DHT22;9810;52.480;9.806;2023-07-09T09:16:23;31.60;99.90
19348;DHT22;9810;52.480;9.806;2023-07-09T09:18:55;31.70;99.90
19348;DHT22;9810;52.480;9.806;2023-07-09T09:21:29;31.70;99.90
19348;DHT22;9810;52.480;9.806;2023-07-09T09:24:02;32.60;99.90
19348;DHT22;9810;52.480;9.806;2023-07-09T09:26:32;32.10;99.90
19348;DHT22;9810;52.480;9.806;2023-07-09T09:29:00;31.60;99.90
19348;DHT22;9810;52.480;9.806;2023-07-09T09:31:36;31.80;99.90
19348;DHT22;9810;52.480;9.806;2023-07-09T09:34:04;32.30;99.90
19348;DHT22;9810;52.480;9.806;2023-07-09T09:36:36;33.00;99.90
19348;DHT22;9810;52.480;9.806;2023-07-09T09:39:04;32.90;99.90
19348;DHT22;9810;52.480;9.806;2023-07-09T09:41:35;32.60;99.90
19348;DHT22;9810;52.480;9.806;2023-07-09T09:44:04;32.20;99.90
19348;DHT22;9810;52.480;9.806;2023-07-09T09:46:32;32.20;99.90
19348;DHT22;9810;52.480;9.806;2023-07-09T09:49:01;31.80;99.90
19348;DHT22;9810;52.480;9.806;2023-07-09T09:51:29;31.60;99.90
19348;DHT22;9810;52.480;9.806;2023-07-09T09:54:01;32.30;99.90
19348;DHT22;9810;52.480;9.806;2023-07-09T09:56:30;31.80;99.90
19348;DHT22;9810;52.480;9.806;2023-07-09T09:59:01;32.10;99.90
19348;DHT22;9810;52.480;9.806;2023-07-09T10:01:31;32.50;99.90
19348;DHT22;9810;52.480;9.806;2023-07-09T10:04:01;32.50;99.90
19348;DHT22;9810;52.480;9.806;2023-07-09T10:06:35;32.00;99.90
19348;DHT22;9810;52.480;9.806;2023-07-09T10:09:10;32.10;99.90
19348;DHT22;9810;52.480;9.806;2023-07-09T10:11:45;32.30;99.90
19348;DHT22;9810;52.480;9.806;2023-07-09T10:14:31;32.50;99.90
19348;DHT22;9810;52.480;9.806;2023-07-09T10:17:05;32.50;99.90
19348;DHT22;9810;52.480;9.806;2023-07-09T10:19:39;31.80;99.90
19348;DHT22;9810;52.480;9.806;2023-07-09T10:22:16;31.80;99.90
19348;DHT22;9810;52.480;9.806;2023-07-09T10:25:00;31.40;99.90
19348;DHT22;9810;52.480;9.806;2023-07-09T10:27:34;31.30;99.90
19348;DHT22;9810;52.480;9.806;2023-07-09T10:30:17;32.10;99.90
19348;DHT22;9810;52.480;9.806;2023-07-09T10:32:56;32.00;99.90
19348;DHT22;9810;52.480;9.806;2023-07-09T10:35:33;32.50;99.90
19348;DHT22;9810;52.480;9.806;2023-07-09T10:38:22;32.10;99.90
19348;DHT22;9810;52.480;9.806;2023-07-09T10:40:55;31.80;99.90
19348;DHT22;9810;52.480;9.806;2023-07-09T10:43:31;32.30;99.90
19348;DHT22;9810;52.480;9.806;2023-07-09T10:46:03;32.90;99.90
19348;DHT22;9810;52.480;9.806;2023-07-09T10:48:37;32.40;99.90
19348;DHT22;9810;52.480;9.806;2023-07-09T10:51:12;33.00;99.90
19348;DHT22;9810;52.480;9.806;2023-07-09T10:53:44;32.20;99.90
19348;DHT22;9810;52.480;9.806;2023-07-09T10:56:17;32.30;99.90
19348;DHT22;9810;52.480;9.806;2023-07-09T10:58:52;32.20;99.90
19348;DHT22;9810;52.480;9.806;2023-07-09T11:01:27;32.80;99.90
19348;DHT22;9810;52.480;9.806;2023-07-09T11:04:00;33.00;99.90
19348;DHT22;9810;52.480;9.806;2023-07-09T11:06:31;32.80;99.90
19348;DHT22;9810;52.480;9.806;2023-07-09T11:09:01;33.10;99.90
19348;DHT22;9810;52.480;9.806;2023-07-09T11:11:35;32.40;99.90
19348;DHT22;9810;52.480;9.806;2023-07-09T11:16:49;32.40;99.90
19348;DHT22;9810;52.480;9.806;2023-07-09T11:19:18;32.90;99.90
19348;DHT22;9810;52.480;9.806;2023-07-09T11:22:05;32.50;99.90
19348;DHT22;9810;52.480;9.806;2023-07-09T11:24:35;32.60;99.90
19348;DHT22;9810;52.480;9.806;2023-07-09T11:27:16;32.50;99.90
19348;DHT22;9810;52.480;9.806;2023-07-09T11:29:48;32.70;99.90
19348;DHT22;9810;52.480;9.806;2023-07-09T11:32:21;32.50;99.90
19348;DHT22;9810;52.480;9.806;2023-07-09T11:34:49;32.50;99.90
19348;DHT22;9810;52.480;9.806;2023-07-09T11:37:17;32.80;99.90
19348;DHT22;9810;52.480;9.806;2023-07-09T11:39:47;32.80;99.90
19348;DHT22;9810;52.480;9.806;2023-07-09T11:42:28;32.70;99.90
19348;DHT22;9810;52.480;9.806;2023-07-09T11:45:01;32.70;99.90
19348;DHT22;9810;52.480;9.806;2023-07-09T11:47:33;32.80;99.90
19348;DHT22;9810;52.480;9.806;2023-07-09T11:50:03;32.50;99.90
19348;DHT22;9810;52.480;9.806;2023-07-09T11:52:35;32.80;99.90
19348;DHT22;9810;52.480;9.806;2023-07-09T11:55:25;32.50;99.90
19348;DHT22;9810;52.480;9.806;2023-07-09T11:57:56;32.50;99.90
19348;DHT22;9810;52.480;9.806;2023-07-09T12:00:26;33.30;99.90
19348;DHT22;9810;52.480;9.806;2023-07-09T12:02:54;32.90;99.90
19348;DHT22;9810;52.480;9.806;2023-07-09T12:05:26;33.10;99.90
19348;DHT22;9810;52.480;9.806;2023-07-09T12:07:54;33.10;99.90
19348;DHT22;9810;52.480;9.806;2023-07-09T12:10:23;33.10;99.90
19348;DHT22;9810;52.480;9.806;2023-07-09T12:12:56;32.90;99.90
19348;DHT22;9810;52.480;9.806;2023-07-09T12:15:27;33.00;99.90
19348;DHT22;9810;52.480;9.806;2023-07-09T12:17:58;33.10;99.90
19348;DHT22;9810;52.480;9.806;2023-07-09T12:20:30;32.90;99.90
19348;DHT22;9810;52.480;9.806;2023-07-09T12:22:57;32.10;99.90
19348;DHT22;9810;52.480;9.806;2023-07-09T12:25:27;32.40;99.90
19348;DHT22;9810;52.480;9.806;2023-07-09T12:27:58;32.70;99.90
19348;DHT22;9810;52.480;9.806;2023-07-09T12:30:25;32.50;99.90
19348;DHT22;9810;52.480;9.806;2023-07-09T12:32:53;32.90;99.90
19348;DHT22;9810;52.480;9.806;2023-07-09T12:35:20;33.20;99.90
19348;DHT22;9810;52.480;9.806;2023-07-09T12:37:50;33.20;99.90
19348;DHT22;9810;52.480;9.806;2023-07-09T12:40:21;33.20;99.90
19348;DHT22;9810;52.480;9.806;2023-07-09T12:42:50;33.20;99.90
19348;DHT22;9810;52.480;9.806;2023-07-09T12:45:20;33.10;99.60
19348;DHT22;9810;52.480;9.806;2023-07-09T12:47:48;33.20;99.90
19348;DHT22;9810;52.480;9.806;2023-07-09T12:50:21;33.30;99.90
19348;DHT22;9810;52.480;9.806;2023-07-09T12:52:55;33.50;99.90
19348;DHT22;9810;52.480;9.806;2023-07-09T12:55:24;33.20;99.90
19348;DHT22;9810;52.480;9.806;2023-07-09T12:57:54;33.10;99.10
19348;DHT22;9810;52.480;9.806;2023-07-09T13:00:27;33.10;99.90
19348;DHT22;9810;52.480;9.806;2023-07-09T13:02:57;33.00;99.90
19348;DHT22;9810;52.480;9.806;2023-07-09T13:05:26;33.10;99.30
19348;DHT22;9810;52.480;9.806;2023-07-09T13:07:54;33.00;99.10
19348;DHT22;9810;52.480;9.806;2023-07-09T13:10:24;33.30;98.70
19348;DHT22;9810;52.480;9.806;2023-07-09T13:12:53;33.30;98.70
19348;DHT22;9810;52.480;9.806;2023-07-09T13:15:30;33.70;99.70
19348;DHT22;9810;52.480;9.806;2023-07-09T13:18:02;33.40;99.90
19348;DHT22;9810;52.480;9.806;2023-07-09T13:20:31;33.70;99.90
19348;DHT22;9810;52.480;9.806;2023-07-09T13:22:59;33.80;99.10
19348;DHT22;9810;52.480;9.806;2023-07-09T13:25:26;33.30;99.70
19348;DHT22;9810;52.480;9.806;2023-07-09T13:27:54;33.20;99.90
19348;DHT22;9810;52.480;9.806;2023-07-09T13:30:21;33.30;98.90
19348;DHT22;9810;52.480;9.806;2023-07-09T13:32:50;32.90;99.10
19348;DHT22;9810;52.480;9.806;2023-07-09T13:35:18;33.10;99.90
19348;DHT22;9810;52.480;9.806;2023-07-09T13:37:46;33.40;99.90
19348;DHT22;9810;52.480;9.806;2023-07-09T13:40:15;33.70;99.90
19348;DHT22;9810;52.480;9.806;2023-07-09T13:42:43;33.40;99.60
19348;DHT22;9810;52.480;9.806;2023-07-09T13:45:19;33.20;99.90
19348;DHT22;9810;52.480;9.806;2023-07-09T13:47:50;33.00;99.90
19348;DHT22;9810;52.480;9.806;2023-07-09T13:50:18;33.10;99.90
19348;DHT22;9810;52.480;9.806;2023-07-09T13:52:46;32.80;98.90
19348;DHT22;9810;52.480;9.806;2023-07-09T13:55:19;32.70;99.50
19348;DHT22;9810;52.480;9.806;2023-07-09T13:57:47;33.20;99.90
19348;DHT22;9810;52.480;9.806;2023-07-09T14:00:15;33.50;99.90
19348;DHT22;9810;52.480;9.806;2023-07-09T14:02:43;33.70;99.90
19348;DHT22;9810;52.480;9.806;2023-07-09T14:05:13;33.20;98.90
19348;DHT22;9810;52.480;9.806;2023-07-09T14:07:41;33.20;99.70
19348;DHT22;9810;52.480;9.806;2023-07-09T14:10:12;33.20;98.60
19348;DHT22;9810;52.480;9.806;2023-07-09T14:12:42;33.30;98.40
19348;DHT22;9810;52.480;9.806;2023-07-09T14:15:14;33.60;98.50
19348;DHT22;9810;52.480;9.806;2023-07-09T14:17:42;33.60;99.10
19348;DHT22;9810;52.480;9.806;2023-07-09T14:20:13;33.70;99.10
19348;DHT22;9810;52.480;9.806;2023-07-09T14:22:42;33.70;99.80
19348;DHT22;9810;52.480;9.806;2023-07-09T14:25:17;33.80;99.90
19348;DHT22;9810;52.480;9.806;2023-07-09T14:27:45;33.80;99.90
19348;DHT22;9810;52.480;9.806;2023-07-09T14:30:16;33.70;99.10
19348;DHT22;9810;52.480;9.806;2023-07-09T14:32:45;33.80;99.90
19348;DHT22;9810;52.480;9.806;2023-07-09T14:35:16;33.70;98.60
19348;DHT22;9810;52.480;9.806;2023-07-09T14:37:45;33.60;99.50
19348;DHT22;9810;52.480;9.806;2023-07-09T14:40:14;33.80;98.50
19348;DHT22;9810;52.480;9.806;2023-07-09T14:42:42;33.00;98.10
19348;DHT22;9810;52.480;9.806;2023-07-09T14:45:21;33.30;99.90
19348;DHT22;9810;52.480;9.806;2023-07-09T14:47:50;33.40;99.90
19348;DHT22;9810;52.480;9.806;2023-07-09T14:50:20;33.60;99.70
19348;DHT22;9810;52.480;9.806;2023-07-09T14:52:47;33.50;99.00
19348;DHT22;9810;52.480;9.806;2023-07-09T14:55:15;33.70;99.60
19348;DHT22;9810;52.480;9.806;2023-07-09T14:57:44;33.70;99.70
19348;DHT22;9810;52.480;9.806;2023-07-09T15:00:15;33.60;98.90
19348;DHT22;9810;52.480;9.806;2023-07-09T15:02:44;33.60;97.80
19348;DHT22;9810;52.480;9.806;2023-07-09T15:05:16;33.50;98.30
19348;DHT22;9810;52.480;9.806;2023-07-09T15:07:46;33.40;99.50
19348;DHT22;9810;52.480;9.806;2023-07-09T15:10:15;33.40;99.90
19348;DHT22;9810;52.480;9.806;2023-07-09T15:12:43;33.30;99.60
19348;DHT22;9810;52.480;9.806;2023-07-09T15:15:23;33.40;99.70
19348;DHT22;9810;52.480;9.806;2023-07-09T15:17:51;33.50;99.20
19348;DHT22;9810;52.480;9.806;2023-07-09T15:20:20;33.40;99.00
19348;DHT22;9810;52.480;9.806;2023-07-09T15:22:50;33.10;99.20
19348;DHT22;9810;52.480;9.806;2023-07-09T15:25:21;33.10;99.40
19348;DHT22;9810;52.480;9.806;2023-07-09T15:27:49;33.00;98.70
19348;DHT22;9810;52.480;9.806;2023-07-09T15:30:19;33.10;99.10
19348;DHT22;9810;52.480;9.806;2023-07-09T15:32:47;33.10;99.90
19348;DHT22;9810;52.480;9.806;2023-07-09T15:35:16;33.20;99.90
19348;DHT22;9810;52.480;9.806;2023-07-09T15:37:44;33.30;99.30
19348;DHT22;9810;52.480;9.806;2023-07-09T15:40:18;33.10;99.20
19348;DHT22;9810;52.480;9.806;2023-07-09T15:42:47;33.20;99.90
19348;DHT22;9810;52.480;9.806;2023-07-09T15:45:16;33.30;99.50
19348;DHT22;9810;52.480;9.806;2023-07-09T15:47:45;32.90;98.80
19348;DHT22;9810;52.480;9.806;2023-07-09T15:50:14;32.80;99.80
19348;DHT22;9810;52.480;9.806;2023-07-09T15:52:42;32.30;99.70
19348;DHT22;9810;52.480;9.806;2023-07-09T15:55:14;32.50;99.80
19348;DHT22;9810;52.480;9.806;2023-07-09T15:57:44;32.60;99.90
19348;DHT22;9810;52.480;9.806;2023-07-09T16:00:17;32.70;99.90
19348;DHT22;9810;52.480;9.806;2023-07-09T16:02:44;32.20;99.90